Time;durP1;ratioP1;P1;durP2;ratioP2;P2;SDS_P1;SDS_P2;PMS_P1;PMS_P2;Temp;Humidity;BMP_temperature;BMP_pressure;BME280_temperature;BME280_humidity;BME280_pressure;Samples;Min_cycle;Max_cycle;Signal;HPM_P1;HPM_P2
2021/12/29 00:01:38;;;;;;;1.30;1.20;;;11.90;70.70;;;;;;5076416;28;21244;-85
2021/12/29 00:04:05;;;;;;;8.00;1.20;;;11.90;70.80;;;;;;5073344;28;20827;-85
2021/12/29 00:06:32;;;;;;;5.13;1.30;;;11.80;70.90;;;;;;5076974;28;20479;-84
2021/12/29 00:09:01;;;;;;;1.73;1.47;;;11.80;71.20;;;;;;5093192;28;20456;-85
2021/12/29 00:11:28;;;;;;;1.00;0.90;;;11.80;71.10;;;;;;5076614;28;20450;-85
2021/12/29 00:13:55;;;;;;;2.80;0.90;;;11.90;71.10;;;;;;5090656;28;21008;-82
2021/12/29 00:16:22;;;;;;;1.10;0.93;;;11.80;71.20;;;;;;5072833;28;20447;-84
2021/12/29 00:18:49;;;;;;;1.80;1.00;;;11.80;72.20;;;;;;5065518;28;20451;-85
2021/12/29 00:21:16;;;;;;;0.90;0.70;;;11.90;71.30;;;;;;5057852;28;20829;-84
2021/12/29 00:23:43;;;;;;;0.87;0.87;;;12.10;70.90;;;;;;5096691;28;20511;-83
2021/12/29 00:26:14;;;;;;;1.90;0.87;;;12.20;70.10;;;;;;5057276;28;20440;-85
2021/12/29 00:28:41;;;;;;;1.70;0.90;;;12.20;69.80;;;;;;5073778;28;20493;-85
2021/12/29 00:31:08;;;;;;;1.10;0.77;;;12.10;70.60;;;;;;5079158;28;20478;-85
2021/12/29 00:33:54;;;;;;;1.57;0.73;;;12.00;70.50;;;;;;5096493;28;20547;-85
2021/12/29 00:36:53;;;;;;;1.00;0.80;;;11.80;71.10;;;;;;5050066;28;20465;-82
2021/12/29 00:39:39;;;;;;;2.97;0.87;;;11.70;71.80;;;;;;5077514;28;20454;-84
2021/12/29 00:42:27;;;;;;;1.37;1.00;;;11.70;72.10;;;;;;5066336;28;20442;-84
2021/12/29 00:45:21;;;;;;;2.23;1.07;;;11.70;72.10;;;;;;5065793;28;20464;-84
2021/12/29 00:47:49;;;;;;;2.43;0.90;;;11.80;72.20;;;;;;5095353;28;20954;-85
2021/12/29 00:50:16;;;;;;;1.30;1.00;;;11.90;71.40;;;;;;5062954;28;20468;-85
2021/12/29 00:52:44;;;;;;;2.93;0.80;;;11.80;71.80;;;;;;5096522;28;20451;-85
2021/12/29 00:55:12;;;;;;;2.50;1.00;;;11.80;72.40;;;;;;5077500;28;20483;-85
2021/12/29 00:57:40;;;;;;;1.43;0.97;;;11.80;72.10;;;;;;5078484;28;20466;-85
2021/12/29 01:00:10;;;;;;;3.47;1.40;;;11.90;71.90;;;;;;5062382;28;20452;-84
2021/12/29 01:02:37;;;;;;;1.13;1.03;;;12.00;71.40;;;;;;5084004;28;20451;-84
2021/12/29 01:05:05;;;;;;;2.40;1.20;;;12.10;71.10;;;;;;5096407;27;20478;-85
2021/12/29 01:07:32;;;;;;;1.40;1.10;;;12.00;71.50;;;;;;5098329;27;20451;-84
2021/12/29 01:10:00;;;;;;;1.23;1.13;;;12.00;71.60;;;;;;5080784;27;21018;-85
2021/12/29 01:12:28;;;;;;;2.90;0.80;;;12.10;71.20;;;;;;5070318;28;20632;-85
2021/12/29 01:14:57;;;;;;;1.10;0.97;;;12.10;71.10;;;;;;5078996;28;20470;-85
2021/12/29 01:17:25;;;;;;;1.67;0.90;;;12.10;71.30;;;;;;5068413;28;20451;-85
2021/12/29 01:19:54;;;;;;;3.40;1.17;;;12.00;71.30;;;;;;5095016;27;20567;-84
2021/12/29 01:22:22;;;;;;;0.70;0.70;;;11.90;72.20;;;;;;5081229;28;20466;-84
2021/12/29 01:24:49;;;;;;;2.23;0.97;;;12.10;71.10;;;;;;5080974;28;20464;-85
2021/12/29 01:27:18;;;;;;;2.70;1.10;;;12.30;70.60;;;;;;5096745;27;20951;-84
2021/12/29 01:29:46;;;;;;;2.90;1.00;;;12.40;70.20;;;;;;5075968;28;20455;-84
2021/12/29 01:32:14;;;;;;;3.13;1.00;;;12.40;70.40;;;;;;5074481;28;20463;-85
2021/12/29 01:34:41;;;;;;;1.40;1.30;;;12.40;70.00;;;;;;5095283;28;20458;-85
2021/12/29 01:37:09;;;;;;;2.73;0.93;;;12.40;70.00;;;;;;5079052;28;20532;-85
2021/12/29 01:39:36;;;;;;;1.27;0.90;;;12.50;69.70;;;;;;5075509;28;20451;-84
2021/12/29 01:42:04;;;;;;;0.80;0.80;;;12.20;70.50;;;;;;5098828;27;20454;-85
2021/12/29 01:44:31;;;;;;;1.20;0.80;;;12.00;71.70;;;;;;5052876;27;20472;-85
2021/12/29 01:46:58;;;;;;;1.53;0.77;;;12.00;72.00;;;;;;5100713;28;20463;-85
2021/12/29 01:49:27;;;;;;;2.13;0.80;;;12.00;71.00;;;;;;5079090;28;20451;-85
2021/12/29 01:52:03;;;;;;;2.33;1.10;;;11.80;71.80;;;;;;5078717;28;20460;-84
2021/12/29 01:54:34;;;;;;;0.70;0.70;;;12.10;72.00;;;;;;5069661;28;20475;-84
2021/12/29 01:57:03;;;;;;;1.00;0.80;;;12.30;70.80;;;;;;5079431;28;20447;-84
2021/12/29 01:59:30;;;;;;;1.50;0.70;;;12.10;71.30;;;;;;5100557;27;20457;-85
2021/12/29 02:01:58;;;;;;;1.13;0.87;;;12.10;71.10;;;;;;5070896;28;20947;-85
2021/12/29 02:04:26;;;;;;;1.37;0.73;;;12.10;71.50;;;;;;5089960;28;20494;-85
2021/12/29 02:06:53;;;;;;;0.83;0.80;;;12.20;71.20;;;;;;5107236;28;20464;-85
2021/12/29 02:09:20;;;;;;;3.23;1.10;;;12.20;70.70;;;;;;5066718;28;20486;-83
2021/12/29 02:11:47;;;;;;;1.10;1.00;;;12.10;71.10;;;;;;5079619;28;20529;-85
2021/12/29 02:14:14;;;;;;;1.63;0.90;;;12.30;70.80;;;;;;5087624;28;20471;-86
2021/12/29 02:16:42;;;;;;;0.70;0.70;;;12.20;70.70;;;;;;5099945;28;20454;-85
2021/12/29 02:19:11;;;;;;;3.23;1.67;;;12.00;71.00;;;;;;5080710;28;20456;-85
2021/12/29 02:21:42;;;;;;;1.47;0.93;;;12.10;71.30;;;;;;5088776;27;20689;-85
2021/12/29 02:24:18;;;;;;;2.97;1.10;;;12.00;70.90;;;;;;5102713;27;20529;-85
2021/12/29 02:26:47;;;;;;;1.13;1.03;;;12.10;71.00;;;;;;5082614;28;20467;-86
2021/12/29 02:29:18;;;;;;;0.90;0.80;;;12.10;71.20;;;;;;5099703;28;20447;-85
2021/12/29 02:31:46;;;;;;;0.80;0.80;;;12.00;71.20;;;;;;5084163;28;20471;-84
2021/12/29 02:34:15;;;;;;;0.90;0.77;;;12.10;70.90;;;;;;5103682;28;20466;-85
2021/12/29 02:36:46;;;;;;;3.50;1.10;;;12.20;70.60;;;;;;5082810;27;20522;-83
2021/12/29 02:39:16;;;;;;;2.37;1.00;;;12.20;70.40;;;;;;5083672;28;20452;-85
2021/12/29 02:41:49;;;;;;;2.10;0.83;;;12.10;70.50;;;;;;5101363;28;20448;-85
2021/12/29 02:44:23;;;;;;;4.27;1.10;;;11.90;70.90;;;;;;5102447;28;20997;-86
2021/12/29 02:46:50;;;;;;;0.77;0.70;;;12.00;71.20;;;;;;5080430;28;20494;-86
2021/12/29 02:49:17;;;;;;;0.90;0.80;;;12.00;71.00;;;;;;5084007;28;20447;-85
2021/12/29 02:51:47;;;;;;;2.20;0.70;;;12.20;70.80;;;;;;5080859;27;20462;-84
2021/12/29 02:54:16;;;;;;;0.80;0.80;;;12.30;69.90;;;;;;5085082;28;20474;-85
2021/12/29 02:56:43;;;;;;;1.43;0.80;;;12.20;69.50;;;;;;5080977;28;20503;-85
2021/12/29 02:59:10;;;;;;;2.10;0.80;;;12.30;69.80;;;;;;5096909;28;20454;-85
2021/12/29 03:01:37;;;;;;;0.80;0.80;;;12.40;69.40;;;;;;5100435;28;20961;-85
2021/12/29 03:04:06;;;;;;;1.60;0.93;;;12.30;69.60;;;;;;5101828;28;20455;-85
2021/12/29 03:06:34;;;;;;;0.90;0.80;;;12.30;69.90;;;;;;5085763;28;20452;-85
2021/12/29 03:09:03;;;;;;;3.43;0.70;;;12.50;69.50;;;;;;5083566;28;21016;-84
2021/12/29 03:11:30;;;;;;;0.80;0.70;;;12.40;69.10;;;;;;5088895;27;20828;-84
2021/12/29 03:13:57;;;;;;;2.30;0.80;;;12.40;70.10;;;;;;5071080;28;20465;-85
2021/12/29 03:16:24;;;;;;;0.90;0.80;;;12.50;70.10;;;;;;5103607;27;20540;-85
2021/12/29 03:18:52;;;;;;;1.33;0.97;;;12.50;69.50;;;;;;5062092;28;20479;-85
2021/12/29 03:21:19;;;;;;;1.37;0.70;;;12.60;69.20;;;;;;5063786;28;20478;-86
2021/12/29 03:23:48;;;;;;;1.83;0.90;;;12.30;70.10;;;;;;5102336;28;20968;-85
2021/12/29 03:26:17;;;;;;;0.90;0.80;;;12.20;70.50;;;;;;5099933;28;20440;-85
2021/12/29 03:28:44;;;;;;;1.50;0.80;;;12.20;70.80;;;;;;5102261;28;20447;-84
2021/12/29 03:31:14;;;;;;;1.53;0.83;;;12.00;70.70;;;;;;5099996;28;20473;-85
2021/12/29 03:33:42;;;;;;;0.90;0.80;;;12.20;70.80;;;;;;5065802;28;20446;-85
2021/12/29 03:36:10;;;;;;;0.90;0.80;;;12.30;70.20;;;;;;5082708;28;20499;-85
2021/12/29 03:38:39;;;;;;;1.37;0.80;;;12.70;69.70;;;;;;5068208;28;21169;-85
2021/12/29 03:41:14;;;;;;;0.73;0.70;;;12.70;68.10;;;;;;5099119;28;20447;-86
2021/12/29 03:43:44;;;;;;;1.83;0.80;;;12.80;68.30;;;;;;5087309;28;20470;-85
2021/12/29 03:46:12;;;;;;;5.00;1.20;;;12.80;68.10;;;;;;5081353;28;20470;-86
2021/12/29 03:48:41;;;;;;;0.90;0.70;;;12.80;68.00;;;;;;5079296;28;20442;-85
2021/12/29 03:51:08;;;;;;;2.03;0.80;;;12.80;67.40;;;;;;5103081;28;20475;-86
2021/12/29 03:53:36;;;;;;;1.87;0.90;;;12.70;67.70;;;;;;5080840;28;20462;-83
2021/12/29 03:56:04;;;;;;;0.80;0.73;;;12.60;67.70;;;;;;5096019;28;20475;-86
2021/12/29 03:58:31;;;;;;;0.90;0.73;;;12.70;67.90;;;;;;5083415;28;20463;-85
2021/12/29 04:01:03;;;;;;;3.60;1.57;;;12.40;68.50;;;;;;5101338;28;20954;-85
2021/12/29 04:03:30;;;;;;;1.43;1.07;;;12.50;68.20;;;;;;5070438;28;20459;-82
2021/12/29 04:05:57;;;;;;;1.63;0.70;;;12.60;68.60;;;;;;5100556;28;20472;-85
2021/12/29 04:08:24;;;;;;;0.80;0.70;;;12.50;68.40;;;;;;5101549;28;20455;-84
2021/12/29 04:10:51;;;;;;;1.17;0.77;;;12.10;69.00;;;;;;5073470;28;20454;-85
2021/12/29 04:13:17;;;;;;;0.80;0.50;;;12.00;70.30;;;;;;5086559;28;20474;-86
2021/12/29 04:15:46;;;;;;;1.13;0.90;;;12.00;70.50;;;;;;5104033;27;21350;-85
2021/12/29 04:18:26;;;;;;;0.80;0.60;;;12.00;70.50;;;;;;5083414;28;20447;-82
2021/12/29 04:20:58;;;;;;;5.50;0.83;;;12.00;70.70;;;;;;5086070;27;20442;-85
2021/12/29 04:23:28;;;;;;;0.93;0.80;;;12.30;70.40;;;;;;5089101;28;20545;-86
2021/12/29 04:25:57;;;;;;;1.20;0.80;;;12.40;69.30;;;;;;5109959;27;20482;-82
2021/12/29 04:28:26;;;;;;;1.23;1.13;;;12.50;69.50;;;;;;5099826;28;20465;-86
2021/12/29 04:30:56;;;;;;;1.00;0.70;;;12.70;69.20;;;;;;5104512;27;20488;-83
2021/12/29 04:33:26;;;;;;;1.10;1.00;;;12.60;68.80;;;;;;5100225;28;20542;-85
2021/12/29 04:35:53;;;;;;;1.10;1.00;;;12.80;68.60;;;;;;5082301;28;20474;-85
2021/12/29 04:38:21;;;;;;;0.90;0.90;;;12.60;68.60;;;;;;5085969;28;20966;-83
2021/12/29 04:40:50;;;;;;;0.90;0.90;;;12.30;68.90;;;;;;5106252;28;20946;-85
2021/12/29 04:43:18;;;;;;;1.33;1.10;;;12.40;69.30;;;;;;5085942;28;21025;-86
2021/12/29 04:45:45;;;;;;;2.00;0.97;;;12.20;68.90;;;;;;5089668;28;20533;-84
2021/12/29 04:48:14;;;;;;;2.80;1.30;;;12.10;70.00;;;;;;5083980;28;20462;-86
2021/12/29 04:50:50;;;;;;;2.60;0.97;;;12.30;69.30;;;;;;5072108;28;20445;-86
2021/12/29 04:53:18;;;;;;;1.20;0.80;;;12.40;68.40;;;;;;5085705;27;20443;-85
2021/12/29 04:55:47;;;;;;;2.70;1.30;;;12.40;68.00;;;;;;5104407;28;21005;-83
2021/12/29 04:58:15;;;;;;;1.00;0.90;;;12.40;67.90;;;;;;5068702;28;20451;-85
2021/12/29 05:00:42;;;;;;;0.80;0.80;;;12.50;67.40;;;;;;5072431;28;20456;-85
2021/12/29 05:03:09;;;;;;;0.83;0.70;;;12.50;67.20;;;;;;5051705;28;20459;-85
2021/12/29 05:05:51;;;;;;;3.40;1.00;;;12.40;67.90;;;;;;5085883;28;20528;-86
2021/12/29 05:08:25;;;;;;;1.33;0.80;;;12.30;67.70;;;;;;5101076;27;20533;-85
2021/12/29 05:11:00;;;;;;;2.33;1.00;;;12.40;67.90;;;;;;5076151;28;21020;-86
2021/12/29 05:13:29;;;;;;;0.80;0.70;;;12.10;67.70;;;;;;5089529;28;20462;-86
2021/12/29 05:15:57;;;;;;;0.77;0.67;;;12.30;67.50;;;;;;5101170;28;20465;-86
2021/12/29 05:18:25;;;;;;;0.73;0.73;;;12.40;67.30;;;;;;5083853;28;21026;-85
2021/12/29 05:20:53;;;;;;;3.47;0.90;;;12.30;66.90;;;;;;5102487;27;20454;-84
2021/12/29 05:23:21;;;;;;;0.90;0.70;;;12.30;67.30;;;;;;5104891;27;20983;-84
2021/12/29 05:25:49;;;;;;;1.00;0.73;;;12.20;67.00;;;;;;5104570;27;20486;-86
2021/12/29 05:28:17;;;;;;;0.87;0.80;;;12.20;67.40;;;;;;5087479;28;20459;-85
2021/12/29 05:30:46;;;;;;;1.03;0.90;;;12.00;68.00;;;;;;5104908;28;20443;-82
2021/12/29 05:33:14;;;;;;;0.90;0.80;;;12.00;67.70;;;;;;5087508;28;21031;-86
2021/12/29 05:35:41;;;;;;;0.80;0.80;;;12.00;67.80;;;;;;5107154;28;20486;-86
2021/12/29 05:38:08;;;;;;;2.90;1.00;;;12.20;67.60;;;;;;5104423;27;20502;-85
2021/12/29 05:40:36;;;;;;;1.70;0.80;;;12.20;67.40;;;;;;5102717;27;20513;-83
2021/12/29 05:43:04;;;;;;;1.60;0.67;;;12.20;66.90;;;;;;5085093;28;20447;-85
2021/12/29 05:45:31;;;;;;;0.90;0.70;;;12.00;67.30;;;;;;5063673;28;20463;-85
2021/12/29 05:47:58;;;;;;;2.43;1.00;;;12.10;67.20;;;;;;5049443;28;20459;-86
2021/12/29 05:50:27;;;;;;;1.00;0.90;;;12.30;67.20;;;;;;5084416;28;20470;-86
2021/12/29 05:52:55;;;;;;;1.03;0.87;;;12.10;67.00;;;;;;5052831;28;20498;-83
2021/12/29 05:55:22;;;;;;;2.67;0.90;;;12.00;67.50;;;;;;5101327;28;20554;-85
2021/12/29 05:57:51;;;;;;;0.93;0.90;;;12.20;67.70;;;;;;5099308;28;20443;-85
2021/12/29 06:00:21;;;;;;;1.17;1.00;;;12.40;66.70;;;;;;5083694;28;20448;-86
2021/12/29 06:02:48;;;;;;;1.10;1.00;;;12.40;65.90;;;;;;5089646;28;20443;-85
2021/12/29 06:05:15;;;;;;;5.60;1.00;;;12.30;66.10;;;;;;5095414;28;20536;-85
2021/12/29 06:07:42;;;;;;;1.10;1.00;;;12.10;66.00;;;;;;5103712;27;20471;-85
2021/12/29 06:10:10;;;;;;;0.70;0.70;;;12.20;66.60;;;;;;5102391;27;20829;-85
2021/12/29 06:12:38;;;;;;;3.63;1.20;;;12.30;65.80;;;;;;5083400;28;20468;-83
2021/12/29 06:15:08;;;;;;;1.30;1.13;;;12.40;65.70;;;;;;5100521;28;20985;-85
2021/12/29 06:17:35;;;;;;;1.13;1.03;;;12.50;65.30;;;;;;5103570;27;20455;-84
2021/12/29 06:20:02;;;;;;;1.00;0.90;;;12.60;65.20;;;;;;5081890;28;20439;-85
2021/12/29 06:22:29;;;;;;;2.60;0.97;;;12.50;64.40;;;;;;5094819;27;20891;-83
2021/12/29 06:24:56;;;;;;;3.37;1.00;;;12.30;65.40;;;;;;5099785;27;20491;-83
2021/12/29 06:27:24;;;;;;;2.10;0.90;;;12.50;65.00;;;;;;5096230;27;20527;-83
2021/12/29 06:29:51;;;;;;;1.13;1.03;;;12.50;64.80;;;;;;5069847;28;20974;-83
2021/12/29 06:32:20;;;;;;;1.53;1.43;;;12.50;64.70;;;;;;5094896;28;20472;-84
2021/12/29 06:34:47;;;;;;;3.97;1.13;;;12.20;65.00;;;;;;5064905;27;20464;-85
2021/12/29 06:37:14;;;;;;;1.27;1.10;;;12.30;65.70;;;;;;5085294;28;20466;-85
2021/12/29 06:39:42;;;;;;;48.67;26.53;;;12.40;65.40;;;;;;5100578;27;20454;-84
2021/12/29 06:42:09;;;;;;;46.20;23.73;;;12.30;65.50;;;;;;5080044;28;20797;-85
2021/12/29 06:44:38;;;;;;;52.30;30.37;;;12.30;65.90;;;;;;5096175;27;20479;-83
2021/12/29 06:47:05;;;;;;;10.87;7.10;;;12.30;66.20;;;;;;5096019;28;20471;-85
2021/12/29 06:49:34;;;;;;;3.70;3.40;;;12.60;65.50;;;;;;5079741;28;20459;-85
2021/12/29 06:52:02;;;;;;;7.47;6.97;;;12.60;65.10;;;;;;5096114;28;21173;-85
2021/12/29 06:54:29;;;;;;;3.53;3.33;;;12.50;65.20;;;;;;5096203;28;20549;-84
2021/12/29 06:56:56;;;;;;;1.73;1.17;;;12.60;64.90;;;;;;5074374;28;21046;-82
2021/12/29 06:59:23;;;;;;;2.03;1.90;;;12.40;65.30;;;;;;5070385;28;20468;-85
2021/12/29 07:01:49;;;;;;;4.03;3.47;;;12.60;65.30;;;;;;5059178;28;20864;-84
2021/12/29 07:04:16;;;;;;;3.20;2.13;;;12.60;64.90;;;;;;5097029;28;20474;-84
2021/12/29 07:06:45;;;;;;;2.97;1.70;;;12.60;65.20;;;;;;5091939;28;20455;-83
2021/12/29 07:09:12;;;;;;;2.50;2.30;;;12.60;64.60;;;;;;5059957;28;20990;-84
2021/12/29 07:11:39;;;;;;;3.50;3.30;;;12.50;65.20;;;;;;5083441;28;21002;-82
2021/12/29 07:14:09;;;;;;;3.97;3.57;;;12.40;65.10;;;;;;5075680;28;20997;-83
2021/12/29 07:16:38;;;;;;;2.30;2.10;;;12.30;66.00;;;;;;5083709;28;20466;-84
2021/12/29 07:19:05;;;;;;;4.43;3.67;;;12.50;65.70;;;;;;5090433;28;20456;-84
2021/12/29 07:21:32;;;;;;;2.03;1.80;;;12.50;65.20;;;;;;5091982;28;20459;-84
2021/12/29 07:24:00;;;;;;;3.00;2.63;;;12.50;65.80;;;;;;5095389;28;20981;-84
2021/12/29 07:26:27;;;;;;;2.40;1.50;;;12.60;65.40;;;;;;5075911;28;20498;-84
2021/12/29 07:28:56;;;;;;;1.77;1.67;;;12.70;65.50;;;;;;5074133;28;20454;-83
2021/12/29 07:31:23;;;;;;;1.17;1.07;;;12.60;65.10;;;;;;5096239;28;20458;-84
2021/12/29 07:33:50;;;;;;;1.00;0.90;;;12.50;65.90;;;;;;5059005;28;20677;-82
2021/12/29 07:36:17;;;;;;;1.20;1.07;;;12.50;66.40;;;;;;5072808;28;20452;-85
2021/12/29 07:38:45;;;;;;;1.37;1.20;;;12.60;66.30;;;;;;5081585;28;20451;-84
2021/12/29 07:41:14;;;;;;;2.10;1.40;;;12.60;66.00;;;;;;5095897;28;20456;-85
2021/12/29 07:43:42;;;;;;;1.93;1.40;;;12.60;66.00;;;;;;5093878;28;20532;-84
2021/12/29 07:46:12;;;;;;;4.90;3.23;;;12.70;65.80;;;;;;5068662;28;20483;-85
2021/12/29 07:48:39;;;;;;;4.77;4.37;;;12.80;65.50;;;;;;5072996;28;20458;-84
2021/12/29 07:51:07;;;;;;;2.87;2.60;;;12.90;65.40;;;;;;5056355;28;20461;-85
2021/12/29 07:53:37;;;;;;;4.73;3.97;;;13.00;64.60;;;;;;5088609;28;20536;-86
2021/12/29 07:56:06;;;;;;;6.00;4.90;;;13.10;64.00;;;;;;5087921;28;20475;-85
2021/12/29 07:58:35;;;;;;;3.77;2.60;;;13.10;64.50;;;;;;5069377;28;20499;-85
2021/12/29 08:01:03;;;;;;;4.97;3.27;;;13.20;64.20;;;;;;5087295;28;20505;-85
2021/12/29 08:03:30;;;;;;;1.23;1.10;;;13.20;63.70;;;;;;5089131;28;20466;-85
2021/12/29 08:05:57;;;;;;;1.50;1.40;;;13.00;63.90;;;;;;5070445;28;20460;-84
2021/12/29 08:08:24;;;;;;;7.53;3.97;;;12.80;64.10;;;;;;5070891;28;20458;-86
2021/12/29 08:10:51;;;;;;;17.20;8.00;;;12.80;64.70;;;;;;5074577;28;20504;-86
2021/12/29 08:13:18;;;;;;;5.30;3.60;;;12.70;65.30;;;;;;5072314;28;20467;-85
2021/12/29 08:15:46;;;;;;;2.10;1.90;;;12.60;65.70;;;;;;5093697;28;20466;-85
2021/12/29 08:18:13;;;;;;;2.60;2.27;;;12.60;66.00;;;;;;5070871;28;20528;-83
2021/12/29 08:20:40;;;;;;;2.97;2.27;;;12.70;66.30;;;;;;5070885;28;20853;-85
2021/12/29 08:23:09;;;;;;;1.93;1.80;;;12.80;65.90;;;;;;5056226;28;20981;-85
2021/12/29 08:25:37;;;;;;;2.60;1.30;;;12.90;65.90;;;;;;5073159;28;20487;-84
2021/12/29 08:28:05;;;;;;;2.53;2.33;;;12.70;66.00;;;;;;5089578;28;20508;-84
2021/12/29 08:30:33;;;;;;;1.40;1.30;;;12.80;66.80;;;;;;5092983;28;20456;-85
2021/12/29 08:33:01;;;;;;;1.50;1.27;;;12.80;66.80;;;;;;5092400;28;20493;-86
2021/12/29 08:35:29;;;;;;;1.50;1.40;;;12.70;67.40;;;;;;5071896;28;20558;-86
2021/12/29 08:37:57;;;;;;;1.53;1.17;;;12.80;68.00;;;;;;5073797;28;20459;-85
2021/12/29 08:40:25;;;;;;;1.60;1.50;;;13.00;66.80;;;;;;5091923;28;20452;-86
2021/12/29 08:42:54;;;;;;;5.40;2.60;;;13.00;66.80;;;;;;5067405;28;20561;-86
2021/12/29 08:45:23;;;;;;;6.10;5.70;;;13.20;66.70;;;;;;5042848;28;20841;-85
2021/12/29 08:47:52;;;;;;;2.17;2.07;;;13.00;66.50;;;;;;5072395;28;20465;-85
2021/12/29 08:50:21;;;;;;;2.77;2.47;;;13.10;66.90;;;;;;5090123;28;20453;-86
2021/12/29 08:52:48;;;;;;;3.30;3.10;;;13.30;66.50;;;;;;5093743;28;20478;-85
2021/12/29 08:55:15;;;;;;;1.80;1.30;;;13.30;66.20;;;;;;5076106;28;20475;-85
2021/12/29 08:57:42;;;;;;;3.07;2.80;;;13.30;66.10;;;;;;5097245;27;20446;-85
2021/12/29 09:00:15;;;;;;;2.90;2.70;;;13.20;66.00;;;;;;5102102;27;20942;-86
2021/12/29 09:02:43;;;;;;;2.70;2.47;;;13.20;66.10;;;;;;5097246;28;20439;-85
2021/12/29 09:05:11;;;;;;;3.57;2.20;;;13.20;66.00;;;;;;5100256;27;20467;-85
2021/12/29 09:07:40;;;;;;;2.23;2.03;;;13.30;66.10;;;;;;5096289;27;20451;-85
2021/12/29 09:10:09;;;;;;;6.37;5.87;;;13.00;65.80;;;;;;5095508;27;20454;-85
2021/12/29 09:12:36;;;;;;;4.77;2.80;;;13.00;66.00;;;;;;5077870;28;20467;-85
2021/12/29 09:15:03;;;;;;;3.13;2.93;;;13.10;65.90;;;;;;5097675;28;20478;-85
2021/12/29 09:17:30;;;;;;;4.80;3.20;;;13.00;66.10;;;;;;5095683;28;20462;-85
2021/12/29 09:19:57;;;;;;;2.50;2.30;;;13.10;65.90;;;;;;5065622;28;20751;-85
2021/12/29 09:22:24;;;;;;;4.77;2.93;;;13.10;65.50;;;;;;5085410;28;20505;-85
2021/12/29 09:24:52;;;;;;;6.67;6.10;;;13.10;65.30;;;;;;5095381;28;20488;-85
2021/12/29 09:27:19;;;;;;;3.70;3.40;;;13.00;65.20;;;;;;5095759;28;20451;-85
2021/12/29 09:29:46;;;;;;;3.43;3.13;;;12.90;65.70;;;;;;5069159;28;20466;-85
2021/12/29 09:32:13;;;;;;;3.13;2.60;;;13.10;65.40;;;;;;5094386;28;20478;-85
2021/12/29 09:34:40;;;;;;;2.43;2.20;;;13.30;65.10;;;;;;5096729;27;20486;-82
2021/12/29 09:37:08;;;;;;;4.10;2.90;;;13.20;64.70;;;;;;5068446;28;20469;-85
2021/12/29 09:39:35;;;;;;;7.20;2.80;;;13.30;65.00;;;;;;5096747;28;20459;-85
2021/12/29 09:42:04;;;;;;;3.20;2.83;;;13.30;64.10;;;;;;5094012;28;20455;-85
2021/12/29 09:44:31;;;;;;;4.23;3.60;;;13.40;64.10;;;;;;5079876;28;20529;-84
2021/12/29 09:46:59;;;;;;;8.73;4.63;;;13.60;63.80;;;;;;5076827;28;20450;-84
2021/12/29 09:49:26;;;;;;;3.50;3.07;;;13.50;63.40;;;;;;5060934;28;20567;-85
2021/12/29 09:51:53;;;;;;;2.50;2.00;;;13.50;63.50;;;;;;5099764;28;20498;-85
2021/12/29 09:54:20;;;;;;;6.80;3.73;;;13.60;63.80;;;;;;5077424;27;20474;-85
2021/12/29 09:56:47;;;;;;;3.00;2.07;;;13.60;63.30;;;;;;5095779;27;20546;-84
2021/12/29 09:59:18;;;;;;;4.87;3.93;;;13.60;63.90;;;;;;5060868;28;20444;-85
2021/12/29 10:01:45;;;;;;;4.97;4.53;;;13.70;64.00;;;;;;5096749;27;20451;-84
2021/12/29 10:04:13;;;;;;;7.17;5.33;;;13.70;63.50;;;;;;5097633;27;20524;-85
2021/12/29 10:06:40;;;;;;;6.97;5.00;;;13.80;63.40;;;;;;5095057;28;20455;-83
2021/12/29 10:09:13;;;;;;;7.17;6.47;;;13.90;63.90;;;;;;5087513;28;21136;-85
2021/12/29 10:11:41;;;;;;;4.90;4.20;;;13.90;63.40;;;;;;5077502;27;20467;-85
2021/12/29 10:14:09;;;;;;;4.03;3.70;;;14.00;63.20;;;;;;5078392;28;20884;-85
2021/12/29 10:16:39;;;;;;;5.07;4.60;;;14.00;63.10;;;;;;5078530;28;20460;-85
2021/12/29 10:19:08;;;;;;;8.00;7.30;;;14.10;63.10;;;;;;5083462;28;20494;-85
2021/12/29 10:21:37;;;;;;;6.63;5.40;;;14.20;63.10;;;;;;5095845;28;20451;-85
2021/12/29 10:24:04;;;;;;;3.03;2.83;;;14.20;63.00;;;;;;5097409;28;20465;-85
2021/12/29 10:26:33;;;;;;;5.60;4.53;;;14.30;62.60;;;;;;5075633;28;20442;-85
2021/12/29 10:29:03;;;;;;;4.57;4.10;;;14.10;62.60;;;;;;5065737;28;21768;-86
2021/12/29 10:31:32;;;;;;;4.30;3.30;;;14.10;63.30;;;;;;5077758;28;20450;-85
2021/12/29 10:34:05;;;;;;;3.83;2.80;;;14.20;63.00;;;;;;5066779;28;20483;-86
2021/12/29 10:36:37;;;;;;;6.80;3.17;;;14.20;63.60;;;;;;5094462;27;20934;-85
2021/12/29 10:39:08;;;;;;;4.27;2.53;;;14.10;62.70;;;;;;5097418;27;20472;-85
2021/12/29 10:41:47;;;;;;;4.50;4.10;;;14.20;62.60;;;;;;5078177;28;20448;-85
2021/12/29 10:44:14;;;;;;;2.90;2.70;;;14.20;62.50;;;;;;5100549;27;20982;-85
2021/12/29 10:46:41;;;;;;;3.93;3.17;;;14.10;61.70;;;;;;5098638;27;20457;-83
2021/12/29 10:49:10;;;;;;;4.03;2.90;;;14.10;61.90;;;;;;5100136;28;20579;-84
2021/12/29 10:51:40;;;;;;;8.60;4.03;;;14.10;61.70;;;;;;5082604;28;20455;-85
2021/12/29 10:54:13;;;;;;;7.47;3.30;;;14.10;61.80;;;;;;5096376;28;21210;-85
2021/12/29 10:56:43;;;;;;;5.30;4.90;;;14.10;61.70;;;;;;5097459;28;20467;-81
2021/12/29 10:59:18;;;;;;;6.90;3.80;;;14.10;61.30;;;;;;5101147;27;20459;-85
2021/12/29 11:01:45;;;;;;;4.93;3.13;;;14.00;61.60;;;;;;5100664;28;20543;-82
2021/12/29 11:04:15;;;;;;;5.67;4.33;;;13.90;61.90;;;;;;5097117;28;20456;-85
2021/12/29 11:06:44;;;;;;;5.00;2.90;;;14.10;62.10;;;;;;5098947;28;20531;-85
2021/12/29 11:09:13;;;;;;;7.30;3.73;;;14.10;61.70;;;;;;5095910;28;20456;-85
2021/12/29 11:11:42;;;;;;;4.20;2.20;;;14.20;61.20;;;;;;5098852;28;21163;-85
2021/12/29 11:14:13;;;;;;;4.03;3.67;;;14.00;61.00;;;;;;5081565;28;20483;-85
2021/12/29 11:16:40;;;;;;;6.87;3.60;;;13.80;61.80;;;;;;5080676;28;21033;-83
2021/12/29 11:19:08;;;;;;;4.50;3.47;;;13.90;61.70;;;;;;5100281;28;20455;-84
2021/12/29 11:21:38;;;;;;;5.03;4.00;;;13.90;61.40;;;;;;5100484;27;20468;-84
2021/12/29 11:24:13;;;;;;;4.17;2.63;;;14.00;61.50;;;;;;5093774;27;20455;-84
2021/12/29 11:26:41;;;;;;;2.60;2.40;;;14.20;61.00;;;;;;5080792;28;20463;-83
2021/12/29 11:29:10;;;;;;;5.77;3.77;;;14.10;60.90;;;;;;5094278;28;20749;-85
2021/12/29 11:31:39;;;;;;;5.13;3.83;;;14.30;61.00;;;;;;5053010;28;20454;-85
2021/12/29 11:34:15;;;;;;;4.27;2.70;;;14.30;60.80;;;;;;5075098;27;20465;-85
2021/12/29 11:36:44;;;;;;;10.80;5.87;;;14.20;60.70;;;;;;5075158;28;20439;-84
2021/12/29 11:39:11;;;;;;;6.23;4.50;;;14.20;60.60;;;;;;5093904;28;20871;-83
2021/12/29 11:41:39;;;;;;;8.87;6.20;;;14.20;60.20;;;;;;5090806;28;20512;-84
2021/12/29 11:44:06;;;;;;;11.23;6.60;;;14.30;59.80;;;;;;5074865;28;20447;-85
2021/12/29 11:46:33;;;;;;;7.03;3.87;;;14.30;60.20;;;;;;5075122;28;20907;-85
2021/12/29 11:49:04;;;;;;;3.87;2.90;;;14.40;59.70;;;;;;5094108;27;20517;-84
2021/12/29 11:51:38;;;;;;;9.03;4.10;;;14.30;60.20;;;;;;5096276;28;20469;-85
2021/12/29 11:54:14;;;;;;;8.03;3.37;;;14.30;59.90;;;;;;5095163;28;20503;-84
2021/12/29 11:56:42;;;;;;;5.33;3.80;;;14.20;59.70;;;;;;5093327;28;20970;-83
2021/12/29 11:59:09;;;;;;;33.90;17.00;;;14.30;59.80;;;;;;5076361;28;20980;-85
2021/12/29 12:01:37;;;;;;;11.43;7.40;;;14.40;59.70;;;;;;5074645;28;20543;-85
2021/12/29 12:04:09;;;;;;;4.13;2.80;;;14.50;59.50;;;;;;5093261;28;20446;-84
2021/12/29 12:06:38;;;;;;;18.53;9.20;;;14.50;59.10;;;;;;5079128;28;20521;-85
2021/12/29 12:09:15;;;;;;;4.10;3.70;;;14.50;58.90;;;;;;5064527;28;20466;-84
2021/12/29 12:11:51;;;;;;;6.53;3.87;;;14.70;58.70;;;;;;5090782;28;20447;-84
2021/12/29 12:14:21;;;;;;;10.90;2.93;;;14.50;58.10;;;;;;5095733;28;20486;-85
2021/12/29 12:16:50;;;;;;;5.33;3.90;;;14.30;58.40;;;;;;5060788;28;20443;-84
2021/12/29 12:19:19;;;;;;;2.67;1.90;;;14.40;59.00;;;;;;5093240;28;21037;-85
2021/12/29 12:21:46;;;;;;;8.57;5.80;;;14.40;58.20;;;;;;5080070;28;20504;-84
2021/12/29 12:24:17;;;;;;;14.10;6.43;;;14.40;58.60;;;;;;5078580;28;20452;-85
2021/12/29 12:26:55;;;;;;;6.63;4.90;;;14.40;58.70;;;;;;5061091;28;20447;-82
2021/12/29 12:29:23;;;;;;;4.23;2.30;;;14.40;58.60;;;;;;5080920;28;20826;-85
2021/12/29 12:32:02;;;;;;;11.93;4.83;;;13.90;57.80;;;;;;5097838;27;20454;-85
2021/12/29 12:34:29;;;;;;;4.53;3.43;;;13.90;58.20;;;;;;5097669;28;20483;-85
2021/12/29 12:36:56;;;;;;;22.07;9.90;;;13.80;59.30;;;;;;5081499;28;20457;-85
2021/12/29 12:39:24;;;;;;;8.20;5.47;;;14.00;58.70;;;;;;5097616;27;20457;-85
2021/12/29 12:41:56;;;;;;;9.43;5.37;;;14.10;58.50;;;;;;5095508;28;20466;-85
2021/12/29 12:44:33;;;;;;;6.47;3.50;;;14.20;58.40;;;;;;5076651;28;20544;-85
2021/12/29 12:47:10;;;;;;;2.47;2.27;;;14.30;58.40;;;;;;5095513;28;20459;-83
2021/12/29 12:49:46;;;;;;;3.67;2.30;;;14.30;58.20;;;;;;5077435;28;21035;-85
2021/12/29 12:52:14;;;;;;;10.80;5.53;;;14.50;58.20;;;;;;5095959;27;20473;-85
2021/12/29 12:54:50;;;;;;;16.90;8.07;;;14.50;58.20;;;;;;5083625;28;20489;-85